Time;durP1;ratioP1;P1;durP2;ratioP2;P2;SDS_P1;SDS_P2;PMS_P1;PMS_P2;Temp;Humidity;BMP_temperature;BMP_pressure;BME280_temperature;BME280_humidity;BME280_pressure;Samples;Min_cycle;Max_cycle;Signal;HPM_P1;HPM_P2
2021/01/02 00:01:18;;;;;;;50.23;25.93;;;;;;;-0.52;83.30;99896.03;119943;1154;104667;-82
2021/01/02 00:03:48;;;;;;;52.50;27.50;;;;;;;-0.52;83.31;99896.03;120473;1153;104478;-82
2021/01/02 00:06:28;;;;;;;52.40;25.23;;;;;;;-0.52;83.06;99896.03;120429;1154;104590;-82
2021/01/02 00:09:03;;;;;;;56.80;27.87;;;;;;;-0.49;83.48;99901.17;120479;1154;104455;-81
2021/01/02 00:11:35;;;;;;;55.20;26.60;;;;;;;-0.44;83.13;99907.17;120478;1154;103077;-82
2021/01/02 00:14:44;;;;;;;52.90;27.60;;;;;;;-0.45;83.41;99916.56;120453;1154;104363;-82
2021/01/02 00:17:59;;;;;;;55.10;27.63;;;;;;;-0.49;83.29;99921.66;120391;1151;104355;-82
2021/01/02 00:20:41;;;;;;;54.80;27.65;;;;;;;-0.51;83.02;99928.48;120148;1154;102982;-83
2021/01/02 00:23:31;;;;;;;53.57;25.93;;;;;;;-0.54;83.29;99920.75;120413;1153;104452;-83
2021/01/02 00:26:09;;;;;;;58.47;28.17;;;;;;;-0.54;83.45;99923.31;120043;1154;104497;-83
2021/01/02 00:28:39;;;;;;;57.03;27.97;;;;;;;-0.54;83.44;99939.53;120007;1154;104330;-83
2021/01/02 00:31:35;;;;;;;59.00;29.47;;;;;;;-0.49;83.76;99948.14;119946;1154;104428;-82
2021/01/02 00:34:24;;;;;;;62.03;31.57;;;;;;;-0.42;83.50;99939.64;120471;1154;104483;-82
2021/01/02 00:37:05;;;;;;;58.47;28.93;;;;;;;-0.35;83.37;99943.13;120495;1153;104327;-82
2021/01/02 00:39:52;;;;;;;66.77;32.57;;;;;;;-0.35;83.31;99943.13;120509;1153;104320;-82
2021/01/02 00:42:21;;;;;;;53.58;27.13;;;;;;;-0.36;83.30;99936.25;120564;1153;104371;-82
2021/01/02 00:44:50;;;;;;;59.63;30.40;;;;;;;-0.43;83.03;99930.23;120618;1154;103589;-82
2021/01/02 00:47:18;;;;;;;63.67;32.37;;;;;;;-0.44;83.46;99930.23;120609;1154;104371;-82
2021/01/02 00:49:49;;;;;;;65.77;30.83;;;;;;;-0.42;83.15;99931.09;120500;1153;104327;-83
2021/01/02 00:52:50;;;;;;;62.15;30.45;;;;;;;-0.47;83.31;99928.51;120271;1153;104448;-82
2021/01/02 00:55:51;;;;;;;54.73;26.20;;;;;;;-0.48;83.21;99936.19;120477;1153;103107;-83
2021/01/02 00:58:48;;;;;;;56.90;29.18;;;;;;;-0.51;83.24;99941.30;120626;1151;104873;-82
2021/01/02 01:01:28;;;;;;;67.60;31.67;;;;;;;-0.49;83.71;99939.59;120625;1151;104473;-82
2021/01/02 01:04:26;;;;;;;63.30;31.83;;;;;;;-0.48;83.82;99938.75;120640;1151;104342;-83
2021/01/02 01:07:00;;;;;;;66.37;33.10;;;;;;;-0.49;83.68;99939.59;120703;1150;104441;-83
2021/01/02 01:09:36;;;;;;;67.30;33.47;;;;;;;-0.49;83.75;99934.47;120614;1151;104378;-82
2021/01/02 01:12:08;;;;;;;68.77;33.67;;;;;;;-0.50;83.27;99940.45;120665;1151;104321;-83
2021/01/02 01:14:36;;;;;;;64.87;31.20;;;;;;;-0.51;83.43;99933.61;120566;1151;104308;-82
2021/01/02 01:17:10;;;;;;;64.47;33.70;;;;;;;-0.50;83.89;99922.52;120715;1151;104374;-82
2021/01/02 01:19:39;;;;;;;66.27;32.60;;;;;;;-0.49;83.55;99937.03;120604;1151;103460;-82
2021/01/02 01:22:10;;;;;;;72.07;34.00;;;;;;;-0.50;83.70;99937.88;120692;1150;104436;-83
2021/01/02 01:25:03;;;;;;;63.00;30.83;;;;;;;-0.50;83.74;99948.13;120517;1151;104438;-83
2021/01/02 01:27:54;;;;;;;63.83;31.67;;;;;;;-0.55;83.79;99942.09;120557;1151;104426;-83
2021/01/02 01:30:23;;;;;;;66.30;31.20;;;;;;;-0.60;83.68;99936.94;120556;1151;104323;-83
2021/01/02 01:33:02;;;;;;;72.07;33.90;;;;;;;-0.61;83.79;99936.08;120612;1151;104409;-82
2021/01/02 01:35:30;;;;;;;65.83;31.63;;;;;;;-0.61;84.16;99924.98;120525;1151;104325;-82
2021/01/02 01:37:58;;;;;;;69.53;32.17;;;;;;;-0.59;83.98;99924.98;120615;1151;104205;-82
2021/01/02 01:40:31;;;;;;;68.77;34.17;;;;;;;-0.58;84.06;99930.13;120611;1151;104401;-82
2021/01/02 01:43:06;;;;;;;66.07;32.50;;;;;;;-0.55;84.03;99937.82;120559;1151;104487;-82
2021/01/02 01:45:37;;;;;;;62.07;30.17;;;;;;;-0.54;83.83;99941.23;120677;1151;104398;-82
2021/01/02 01:48:10;;;;;;;70.40;33.77;;;;;;;-0.57;83.92;99948.91;120634;1149;104822;-83
2021/01/02 01:51:16;;;;;;;65.20;33.17;;;;;;;-0.57;83.71;99956.59;120538;1151;104458;-83
2021/01/02 01:53:55;;;;;;;65.70;30.87;;;;;;;-0.59;84.19;99951.46;120600;1150;104375;-83
2021/01/02 01:56:49;;;;;;;70.30;34.33;;;;;;;-0.57;83.98;99956.59;120530;1149;104562;-83
2021/01/02 01:59:22;;;;;;;64.73;31.27;;;;;;;-0.63;84.06;99947.16;120680;1150;104330;-83
2021/01/02 02:01:56;;;;;;;65.00;30.83;;;;;;;-0.65;84.17;99944.59;120483;1151;104516;-83
2021/01/02 02:05:03;;;;;;;68.20;33.35;;;;;;;-0.66;84.08;99949.70;120544;1151;104368;-83
2021/01/02 02:08:05;;;;;;;69.27;33.13;;;;;;;-0.66;84.23;99952.27;120599;1151;104430;-83
2021/01/02 02:10:45;;;;;;;64.63;31.67;;;;;;;-0.73;84.05;99943.66;120661;1150;104359;-83
2021/01/02 02:13:13;;;;;;;73.60;34.17;;;;;;;-0.74;84.17;99936.81;120560;1150;105601;-83
2021/01/02 02:15:50;;;;;;;65.07;31.10;;;;;;;-0.75;84.25;99940.23;120517;1150;104570;-83
2021/01/02 02:18:25;;;;;;;69.27;32.30;;;;;;;-0.74;84.26;99936.81;120589;1150;104542;-83
2021/01/02 02:20:55;;;;;;;64.47;29.03;;;;;;;-0.75;84.39;99937.66;120534;1151;104388;-83
2021/01/02 02:23:40;;;;;;;69.07;33.27;;;;;;;-0.75;84.24;99936.81;120622;1150;104374;-83
2021/01/02 02:26:34;;;;;;;64.00;31.80;;;;;;;-0.74;84.52;99944.50;120577;1151;104468;-83
2021/01/02 02:29:18;;;;;;;64.33;32.97;;;;;;;-0.74;84.44;99947.06;120617;1149;104477;-83
2021/01/02 02:31:47;;;;;;;65.20;31.90;;;;;;;-0.74;84.26;99943.64;120612;1151;103165;-83
2021/01/02 02:34:15;;;;;;;66.37;30.57;;;;;;;-0.75;84.62;99947.91;120538;1150;104339;-83
2021/01/02 02:36:43;;;;;;;61.30;29.13;;;;;;;-0.75;84.39;99950.47;120697;1151;104318;-83
2021/01/02 02:39:15;;;;;;;67.17;31.70;;;;;;;-0.78;84.72;99953.01;120649;1150;104356;-83
2021/01/02 02:41:48;;;;;;;71.30;34.60;;;;;;;-0.78;84.66;99954.71;120645;1151;104481;-83
2021/01/02 02:44:30;;;;;;;71.60;35.80;;;;;;;-0.76;84.94;99956.44;120646;1150;104318;-82
2021/01/02 02:47:01;;;;;;;72.83;36.37;;;;;;;-0.75;84.88;99957.30;120598;1151;104319;-83
2021/01/02 02:49:36;;;;;;;72.43;33.03;;;;;;;-0.72;84.77;99962.44;120501;1151;104387;-83
2021/01/02 02:52:15;;;;;;;71.77;34.20;;;;;;;-0.69;84.60;99963.34;120611;1151;104374;-83
2021/01/02 02:54:43;;;;;;;76.75;34.30;;;;;;;-0.67;84.74;99963.36;120550;1151;104442;-83
2021/01/02 02:57:16;;;;;;;70.40;32.67;;;;;;;-0.71;84.38;99962.48;120544;1151;104567;-83
2021/01/02 02:59:43;;;;;;;67.75;29.80;;;;;;;-0.71;84.68;99962.48;120575;1151;104458;-83
2021/01/02 03:02:13;;;;;;;71.97;33.13;;;;;;;-0.70;84.95;99959.07;120543;1151;103193;-83
2021/01/02 03:04:40;;;;;;;74.13;34.13;;;;;;;-0.70;84.74;99961.63;120538;1151;104521;-82
2021/01/02 03:07:07;;;;;;;79.70;36.33;;;;;;;-0.68;84.84;99962.50;120570;1150;102534;-81
2021/01/02 03:09:34;;;;;;;70.97;31.70;;;;;;;-0.64;85.06;99964.23;120642;1150;104423;-83
2021/01/02 03:12:02;;;;;;;73.37;33.17;;;;;;;-0.63;84.71;99970.22;120662;1151;104350;-82
2021/01/02 03:14:29;;;;;;;74.50;33.80;;;;;;;-0.61;84.86;99968.52;120623;1151;104422;-82
2021/01/02 03:17:00;;;;;;;70.50;33.73;;;;;;;-0.56;84.89;99978.80;120598;1151;104352;-83
2021/01/02 03:19:31;;;;;;;71.97;33.53;;;;;;;-0.53;84.91;99973.73;120560;1149;104448;-82
2021/01/02 03:21:59;;;;;;;74.77;35.97;;;;;;;-0.50;84.92;99966.92;120647;1150;104473;-83
2021/01/02 03:24:27;;;;;;;78.03;36.03;;;;;;;-0.46;84.61;99965.23;120587;1151;104496;-83
2021/01/02 03:26:54;;;;;;;79.07;34.90;;;;;;;-0.45;84.38;99957.55;120521;1151;103251;-83
2021/01/02 03:29:21;;;;;;;75.17;34.93;;;;;;;-0.45;84.83;99961.82;120599;1151;104430;-83
2021/01/02 03:31:48;;;;;;;71.13;34.40;;;;;;;-0.44;84.65;99968.66;120492;1151;102624;-83
2021/01/02 03:34:15;;;;;;;79.50;33.65;;;;;;;-0.44;84.19;99968.66;120584;1150;104543;-83
2021/01/02 03:36:42;;;;;;;73.97;33.83;;;;;;;-0.45;84.90;99977.19;120512;1151;104766;-83
2021/01/02 03:39:10;;;;;;;76.70;35.03;;;;;;;-0.47;84.48;99977.19;120650;1149;104396;-82
2021/01/02 03:41:37;;;;;;;65.33;31.17;;;;;;;-0.47;84.15;99976.33;120673;1151;104430;-83
2021/01/02 03:44:04;;;;;;;62.80;29.13;;;;;;;-0.47;84.56;99978.89;120551;1151;102510;-81
2021/01/02 03:46:34;;;;;;;77.30;34.40;;;;;;;-0.46;84.28;99985.73;120601;1150;104332;-82
2021/01/02 03:49:02;;;;;;;72.67;35.37;;;;;;;-0.41;84.39;99991.73;120555;1151;103082;-83
2021/01/02 03:51:29;;;;;;;77.77;34.33;;;;;;;-0.40;84.61;99984.06;120591;1151;104369;-82
2021/01/02 03:53:56;;;;;;;70.67;33.20;;;;;;;-0.42;83.97;99979.77;120533;1151;104322;-83
2021/01/02 03:56:23;;;;;;;76.43;35.70;;;;;;;-0.39;84.81;99982.35;120521;1151;104433;-83
2021/01/02 03:58:50;;;;;;;81.13;37.03;;;;;;;-0.39;84.41;99974.67;120548;1150;104356;-83
2021/01/02 04:01:18;;;;;;;73.43;34.37;;;;;;;-0.42;84.69;99979.77;120690;1150;104316;-83
2021/01/02 04:03:45;;;;;;;75.70;35.33;;;;;;;-0.44;84.52;99984.89;120520;1151;104509;-83
2021/01/02 04:06:12;;;;;;;78.55;35.15;;;;;;;-0.47;84.28;99979.75;120601;1151;104375;-83
2021/01/02 04:08:39;;;;;;;76.63;36.50;;;;;;;-0.45;84.86;99977.19;120563;1151;104435;-83
2021/01/02 04:11:06;;;;;;;78.63;37.30;;;;;;;-0.44;84.86;99981.47;120680;1150;104449;-83
2021/01/02 04:13:33;;;;;;;78.43;35.77;;;;;;;-0.43;84.76;99978.06;120599;1150;102657;-83
2021/01/02 04:16:02;;;;;;;79.10;37.00;;;;;;;-0.43;84.87;99986.60;120598;1151;104416;-83
2021/01/02 04:18:29;;;;;;;87.27;38.07;;;;;;;-0.43;85.01;99980.63;120580;1151;106132;-83
2021/01/02 04:20:56;;;;;;;72.73;35.53;;;;;;;-0.44;84.60;99981.47;120602;1151;104414;-83
2021/01/02 04:23:25;;;;;;;80.90;36.33;;;;;;;-0.45;84.95;99982.31;120605;1150;104340;-83
2021/01/02 04:25:52;;;;;;;79.93;37.37;;;;;;;-0.48;84.67;99982.30;120578;1151;104369;-83
2021/01/02 04:28:19;;;;;;;81.93;36.50;;;;;;;-0.49;84.52;99985.70;120584;1150;104454;-83
2021/01/02 04:30:46;;;;;;;79.30;36.87;;;;;;;-0.50;85.09;99984.84;120566;1150;104513;-83
2021/01/02 04:33:13;;;;;;;78.17;35.13;;;;;;;-0.51;84.85;99983.14;120556;1150;104449;-83
2021/01/02 04:35:42;;;;;;;81.67;36.23;;;;;;;-0.51;84.89;99988.26;120607;1151;104420;-83
2021/01/02 04:38:09;;;;;;;79.97;35.53;;;;;;;-0.51;85.13;99997.65;120595;1151;104264;-83
2021/01/02 04:40:36;;;;;;;77.60;36.33;;;;;;;-0.51;84.80;99997.65;120659;1149;104360;-83
2021/01/02 04:43:04;;;;;;;77.90;35.60;;;;;;;-0.52;85.15;99995.94;120604;1151;104429;-83
2021/01/02 04:45:32;;;;;;;76.80;35.07;;;;;;;-0.52;84.74;100001.05;120527;1151;104504;-83
2021/01/02 04:48:05;;;;;;;83.63;37.27;;;;;;;-0.56;85.20;99999.29;120507;1149;103228;-83
2021/01/02 04:50:33;;;;;;;82.30;36.40;;;;;;;-0.57;85.16;100006.11;120526;1150;104524;-83
2021/01/02 04:53:04;;;;;;;77.95;36.05;;;;;;;-0.56;84.82;100007.83;120546;1150;104354;-83
2021/01/02 04:55:32;;;;;;;75.97;34.77;;;;;;;-0.57;85.09;100005.26;120556;1151;104425;-83
2021/01/02 04:58:06;;;;;;;72.00;33.40;;;;;;;-0.58;85.36;100017.20;120562;1150;104323;-83
2021/01/02 05:00:37;;;;;;;78.20;34.90;;;;;;;-0.59;85.38;100019.76;120583;1151;102496;-83
2021/01/02 05:03:04;;;;;;;79.83;37.60;;;;;;;-0.59;85.08;100019.76;120569;1150;103689;-83
2021/01/02 05:05:31;;;;;;;82.65;36.68;;;;;;;-0.61;85.29;100023.16;120532;1150;104402;-83
2021/01/02 05:07:59;;;;;;;76.30;36.70;;;;;;;-0.62;85.03;100035.96;120584;1150;104419;-83
2021/01/02 05:10:26;;;;;;;76.67;35.47;;;;;;;-0.62;85.11;100021.45;120619;1151;104337;-83
2021/01/02 05:13:09;;;;;;;77.70;36.75;;;;;;;-0.61;85.68;100025.73;120642;1150;103680;-83
2021/01/02 05:15:36;;;;;;;77.37;35.23;;;;;;;-0.63;85.72;100027.42;120556;1151;104360;-83
2021/01/02 05:18:04;;;;;;;71.72;34.75;;;;;;;-0.62;85.34;100028.28;120660;1151;104349;-83
2021/01/02 05:20:32;;;;;;;75.13;36.00;;;;;;;-0.64;85.55;100019.73;120581;1150;104345;-83
2021/01/02 05:23:09;;;;;;;79.63;36.40;;;;;;;-0.66;85.06;100031.66;120706;1151;103525;-83
2021/01/02 05:25:37;;;;;;;70.75;33.95;;;;;;;-0.65;85.44;100031.67;120653;1151;104366;-83
2021/01/02 05:28:16;;;;;;;79.03;34.70;;;;;;;-0.66;85.55;100035.08;120755;1150;104375;-83
2021/01/02 05:30:43;;;;;;;73.10;35.10;;;;;;;-0.67;85.62;100041.05;120593;1151;104468;-83
2021/01/02 05:33:12;;;;;;;75.55;33.40;;;;;;;-0.70;85.11;100053.83;120586;1151;104308;-83
2021/01/02 05:35:45;;;;;;;71.10;34.70;;;;;;;-0.73;85.47;100042.67;120633;1151;104553;-83
2021/01/02 05:38:22;;;;;;;71.17;34.47;;;;;;;-0.75;85.92;100039.23;120591;1151;104391;-83
2021/01/02 05:40:56;;;;;;;;;;;;;;;-0.77;85.58;100041.78;120652;1151;104452;-83
2021/01/02 05:43:25;;;;;;;72.20;33.23;;;;;;;-0.78;85.86;100045.19;120570;1151;104471;-82
2021/01/02 05:45:53;;;;;;;68.27;33.77;;;;;;;-0.77;85.57;100052.03;120787;1150;103067;-83
2021/01/02 05:48:23;;;;;;;71.43;34.03;;;;;;;-0.79;85.55;100068.22;120698;1150;103087;-82
2021/01/02 05:50:59;;;;;;;71.57;34.03;;;;;;;-0.80;85.58;100061.38;120663;1150;104321;-83
2021/01/02 05:53:32;;;;;;;67.30;31.83;;;;;;;-0.83;85.31;100075.02;120689;1151;104474;-82
2021/01/02 05:56:09;;;;;;;61.33;29.97;;;;;;;-0.84;85.73;100072.44;120559;1151;104388;-82
2021/01/02 05:58:44;;;;;;;65.63;32.93;;;;;;;-0.84;85.70;100070.74;120691;1150;104416;-82
2021/01/02 06:01:14;;;;;;;59.90;28.70;;;;;;;-0.84;85.62;100069.88;120604;1151;104337;-83
2021/01/02 06:03:43;;;;;;;65.50;30.63;;;;;;;-0.85;85.47;100078.41;120559;1151;103046;-82
2021/01/02 06:06:15;;;;;;;65.80;31.97;;;;;;;-0.82;86.07;100081.00;120666;1150;104419;-83
2021/01/02 06:08:50;;;;;;;73.40;33.80;;;;;;;-0.82;85.90;100069.05;120545;1151;104338;-82
2021/01/02 06:11:19;;;;;;;70.53;32.47;;;;;;;-0.80;85.69;100085.28;120632;1151;104403;-83
2021/01/02 06:13:49;;;;;;;64.80;30.43;;;;;;;-0.79;85.86;100078.47;120547;1151;104307;-83
2021/01/02 06:16:17;;;;;;;71.37;35.30;;;;;;;-0.80;85.83;100077.61;120588;1150;104403;-83
2021/01/02 06:18:47;;;;;;;67.37;33.50;;;;;;;-0.76;85.75;100076.79;120627;1150;104342;-83
2021/01/02 06:21:17;;;;;;;74.10;35.67;;;;;;;-0.73;85.95;100073.40;120641;1150;104351;-83
2021/01/02 06:23:46;;;;;;;72.17;34.53;;;;;;;-0.72;85.09;100076.01;120729;1150;104341;-82
2021/01/02 06:26:15;;;;;;;74.07;34.73;;;;;;;-0.69;85.87;100083.72;120537;1151;104503;-83
2021/01/02 06:28:45;;;;;;;67.87;32.67;;;;;;;-0.69;85.68;100091.40;120683;1150;104370;-83
2021/01/02 06:31:17;;;;;;;69.70;33.07;;;;;;;-0.67;85.44;100086.29;120739;1150;103236;-82
2021/01/02 06:33:50;;;;;;;63.30;32.37;;;;;;;-0.67;85.11;100089.71;120567;1151;101999;-82
2021/01/02 06:36:37;;;;;;;71.40;34.17;;;;;;;-0.67;85.42;100094.83;120661;1151;104856;-83
2021/01/02 06:39:32;;;;;;;71.30;32.75;;;;;;;-0.69;85.13;100104.20;120641;1151;104472;-83
2021/01/02 06:42:00;;;;;;;69.67;33.10;;;;;;;-0.70;85.12;100110.17;120684;1151;104319;-83
2021/01/02 06:44:44;;;;;;;69.30;32.53;;;;;;;-0.71;85.18;100108.45;120694;1150;104438;-82
2021/01/02 06:47:19;;;;;;;69.47;32.53;;;;;;;-0.72;85.68;100100.72;120688;1150;105024;-82
2021/01/02 06:49:47;;;;;;;63.53;30.60;;;;;;;-0.75;85.61;100104.11;120742;1150;103029;-82
2021/01/02 06:52:34;;;;;;;69.27;33.57;;;;;;;-0.77;85.05;100100.68;120597;1150;104455;-83
2021/01/02 06:55:22;;;;;;;70.37;32.90;;;;;;;-0.76;85.50;100102.40;120643;1150;103189;-82
2021/01/02 06:58:04;;;;;;;70.07;33.20;;;;;;;-0.74;85.76;100107.53;120749;1150;104317;-83
2021/01/02 07:00:35;;;;;;;71.10;33.90;;;;;;;-0.73;85.54;100110.11;120652;1151;104460;-82
2021/01/02 07:03:02;;;;;;;63.50;29.93;;;;;;;-0.73;85.55;100112.67;120591;1150;104343;-82
2021/01/02 07:05:44;;;;;;;61.40;31.10;;;;;;;-0.73;85.48;100120.35;120660;1150;104353;-82
2021/01/02 07:08:40;;;;;;;67.35;32.25;;;;;;;-0.70;85.67;100122.97;120626;1151;104426;-83
2021/01/02 07:11:29;;;;;;;67.87;33.17;;;;;;;-0.66;85.62;100122.16;120698;1151;104444;-83
2021/01/02 07:14:09;;;;;;;68.07;34.43;;;;;;;-0.61;85.42;100124.77;120649;1150;104496;-83
2021/01/02 07:17:12;;;;;;;73.07;36.63;;;;;;;-0.61;85.66;100135.87;120594;1150;104391;-83
2021/01/02 07:19:39;;;;;;;71.33;33.93;;;;;;;-0.62;85.58;100128.17;120616;1151;104391;-82
2021/01/02 07:22:22;;;;;;;73.03;34.70;;;;;;;-0.64;85.59;100130.72;120617;1150;104371;-83
2021/01/02 07:24:54;;;;;;;72.97;35.00;;;;;;;-0.68;85.72;100133.23;120719;1151;103184;-82
2021/01/02 07:27:25;;;;;;;66.80;34.07;;;;;;;-0.72;85.15;100140.03;120627;1150;104330;-82
2021/01/02 07:29:55;;;;;;;71.10;34.43;;;;;;;-0.74;85.82;100136.56;120682;1150;104319;-82
2021/01/02 07:32:22;;;;;;;69.63;33.77;;;;;;;-0.76;85.15;100135.69;120637;1151;104348;-82
2021/01/02 07:34:59;;;;;;;73.17;35.37;;;;;;;-0.77;85.74;100146.77;120721;1150;104422;-82
2021/01/02 07:37:33;;;;;;;72.85;34.60;;;;;;;-0.79;85.67;100145.90;120656;1151;103573;-82
2021/01/02 07:40:02;;;;;;;75.57;33.93;;;;;;;-0.82;85.17;100153.55;120620;1151;104244;-82
2021/01/02 07:42:31;;;;;;;70.87;33.33;;;;;;;-0.84;85.63;100157.80;120712;1150;105724;-82
2021/01/02 07:45:23;;;;;;;68.77;32.23;;;;;;;-0.86;85.76;100158.63;120691;1150;104315;-82
2021/01/02 07:47:55;;;;;;;64.83;31.40;;;;;;;-0.87;85.87;100167.14;120667;1151;104797;-83
2021/01/02 07:50:25;;;;;;;63.03;32.40;;;;;;;-0.91;85.37;100155.98;120640;1149;104319;-83
2021/01/02 07:52:54;;;;;;;61.47;29.77;;;;;;;-0.97;85.88;100161.89;120535;1149;104354;-82
2021/01/02 07:55:23;;;;;;;74.03;35.30;;;;;;;-0.99;85.79;100167.84;120765;1150;104404;-82
2021/01/02 07:57:52;;;;;;;65.70;31.60;;;;;;;-1.02;86.34;100183.16;120656;1151;104371;-83
2021/01/02 08:00:20;;;;;;;64.07;31.13;;;;;;;-1.03;85.55;100181.44;120627;1152;104375;-83
2021/01/02 08:02:49;;;;;;;67.37;32.60;;;;;;;-1.02;85.70;100183.16;120724;1150;104393;-83
2021/01/02 08:05:22;;;;;;;65.87;31.67;;;;;;;-0.99;85.68;100170.40;120622;1150;104873;-83
2021/01/02 08:07:58;;;;;;;67.90;32.47;;;;;;;-0.94;86.04;100173.87;120649;1151;104369;-83
2021/01/02 08:10:30;;;;;;;68.67;33.98;;;;;;;-0.91;85.79;100177.32;120579;1151;104374;-83
2021/01/02 08:13:02;;;;;;;68.30;33.07;;;;;;;-0.86;85.65;100176.55;120667;1150;104371;-83
2021/01/02 08:15:35;;;;;;;69.10;33.70;;;;;;;-0.83;86.09;100174.88;120578;1151;102497;-83
2021/01/02 08:18:07;;;;;;;73.83;34.33;;;;;;;-0.79;85.90;100181.75;120549;1151;104445;-83
2021/01/02 08:20:36;;;;;;;65.57;33.10;;;;;;;-0.77;85.87;100184.33;120661;1151;104340;-83
2021/01/02 08:23:13;;;;;;;66.10;32.33;;;;;;;-0.76;85.46;100191.16;120568;1151;104324;-83
2021/01/02 08:25:42;;;;;;;66.83;33.50;;;;;;;-0.75;85.58;100193.74;120651;1149;104812;-83
2021/01/02 08:28:11;;;;;;;70.63;33.17;;;;;;;-0.75;85.77;100203.98;120557;1150;104410;-83
2021/01/02 08:30:38;;;;;;;71.50;33.80;;;;;;;-0.75;85.59;100209.11;120499;1150;104422;-83
2021/01/02 08:33:07;;;;;;;75.17;35.03;;;;;;;-0.75;86.12;100211.67;120557;1151;104345;-83
2021/01/02 08:35:42;;;;;;;71.53;34.83;;;;;;;-0.72;85.74;100227.10;120489;1151;103270;-83
2021/01/02 08:38:12;;;;;;;70.17;33.30;;;;;;;-0.71;85.66;100231.38;120559;1150;104345;-83
2021/01/02 08:40:45;;;;;;;70.87;34.50;;;;;;;-0.72;85.58;100221.98;120536;1151;103227;-83
2021/01/02 08:43:23;;;;;;;68.40;33.60;;;;;;;-0.69;85.56;100222.02;120530;1151;104417;-83
2021/01/02 08:45:59;;;;;;;68.00;32.13;;;;;;;-0.66;85.69;100223.75;120490;1150;104247;-83
2021/01/02 08:48:27;;;;;;;63.47;31.70;;;;;;;-0.61;85.40;100233.20;120565;1150;104304;-83
2021/01/02 08:50:55;;;;;;;63.20;31.70;;;;;;;-0.59;85.11;100232.36;120501;1151;104366;-82
2021/01/02 08:53:26;;;;;;;65.07;32.10;;;;;;;-0.58;85.55;100237.50;120502;1151;104396;-83
2021/01/02 08:55:54;;;;;;;64.10;32.03;;;;;;;-0.56;85.25;100232.39;120561;1150;104288;-83
2021/01/02 08:58:30;;;;;;;72.40;35.63;;;;;;;-0.54;85.27;100228.14;120490;1150;104450;-83
2021/01/02 09:00:57;;;;;;;75.45;35.35;;;;;;;-0.52;85.54;100226.49;120630;1150;104389;-83
2021/01/02 09:03:25;;;;;;;75.17;36.43;;;;;;;-0.54;85.58;100221.31;120530;1150;102487;-83
2021/01/02 09:05:54;;;;;;;71.33;34.40;;;;;;;-0.55;85.36;100222.16;120527;1151;104391;-83
2021/01/02 09:08:23;;;;;;;70.60;35.27;;;;;;;-0.54;84.83;100229.00;120563;1151;104211;-83
2021/01/02 09:10:57;;;;;;;62.87;32.90;;;;;;;-0.52;85.41;100231.61;120559;1150;104319;-83
2021/01/02 09:13:27;;;;;;;67.73;33.43;;;;;;;-0.52;85.22;100236.73;120505;1150;104414;-83
2021/01/02 09:15:54;;;;;;;59.33;31.20;;;;;;;-0.52;85.00;100231.61;120529;1150;104445;-83
2021/01/02 09:18:28;;;;;;;62.73;31.20;;;;;;;-0.48;84.97;100233.37;120615;1150;103098;-83
2021/01/02 09:21:16;;;;;;;70.10;33.40;;;;;;;-0.46;84.96;100224.85;120590;1150;104468;-83
2021/01/02 09:23:57;;;;;;;65.43;32.60;;;;;;;-0.41;85.14;100227.46;120660;1151;104455;-83
2021/01/02 09:26:32;;;;;;;68.07;33.00;;;;;;;-0.37;84.98;100230.06;120542;1150;103131;-83
2021/01/02 09:29:02;;;;;;;69.27;36.10;;;;;;;-0.32;85.17;100227.58;120606;1150;102558;-83
2021/01/02 09:31:35;;;;;;;65.23;32.37;;;;;;;-0.27;85.04;100218.23;120575;1151;104342;-83
2021/01/02 09:34:02;;;;;;;73.43;35.13;;;;;;;-0.21;84.70;100214.87;120479;1150;104476;-83
2021/01/02 09:36:31;;;;;;;70.30;33.97;;;;;;;-0.13;85.58;100210.70;120504;1149;103098;-83
2021/01/02 09:38:58;;;;;;;69.43;35.90;;;;;;;-0.04;84.80;100211.64;120468;1151;104338;-83
2021/01/02 09:41:27;;;;;;;74.50;36.13;;;;;;;0.06;84.97;100216.87;120557;1151;104406;-83
2021/01/02 09:43:56;;;;;;;68.30;34.00;;;;;;;0.11;84.66;100230.59;120581;1151;105861;-83
2021/01/02 09:46:29;;;;;;;63.17;32.43;;;;;;;0.12;84.04;100235.73;120557;1151;104528;-83
2021/01/02 09:48:58;;;;;;;71.90;33.73;;;;;;;0.08;83.59;100240.82;120587;1151;102527;-83
2021/01/02 09:51:30;;;;;;;70.33;34.30;;;;;;;0.04;83.85;100242.50;120581;1151;103211;-83
2021/01/02 09:53:57;;;;;;;71.13;34.87;;;;;;;0.03;83.86;100227.11;120590;1151;104478;-83
2021/01/02 09:56:25;;;;;;;73.93;36.03;;;;;;;0.03;83.94;100212.58;120562;1151;104340;-83
2021/01/02 09:58:53;;;;;;;66.50;35.53;;;;;;;0.06;83.99;100216.87;120533;1150;104500;-82
2021/01/02 10:01:20;;;;;;;64.10;33.53;;;;;;;0.07;83.84;100228.84;120518;1151;104426;-82
2021/01/02 10:03:47;;;;;;;63.43;32.73;;;;;;;0.10;84.19;100219.47;120622;1150;104300;-83
2021/01/02 10:06:14;;;;;;;64.47;33.88;;;;;;;0.13;83.84;100228.89;120657;1151;104824;-82
2021/01/02 10:08:42;;;;;;;65.55;34.35;;;;;;;0.13;83.83;100223.77;120546;1150;104436;-83
2021/01/02 10:11:09;;;;;;;58.30;30.75;;;;;;;0.13;83.54;100223.77;120508;1150;104500;-83
2021/01/02 10:13:36;;;;;;;60.53;30.43;;;;;;;0.14;83.75;100225.48;120568;1150;104321;-83
2021/01/02 10:16:03;;;;;;;64.12;32.17;;;;;;;0.15;83.59;100217.80;120587;1150;102526;-82
2021/01/02 10:18:31;;;;;;;66.40;32.85;;;;;;;0.18;83.51;100215.30;120605;1149;103334;-82
2021/01/02 10:20:59;;;;;;;61.63;32.13;;;;;;;0.22;83.49;100208.48;120513;1150;104346;-83
2021/01/02 10:23:26;;;;;;;61.87;31.53;;;;;;;0.30;83.28;100214.52;120769;1150;104466;-83
2021/01/02 10:25:53;;;;;;;65.57;33.48;;;;;;;0.35;83.17;100207.72;120528;1151;104344;-82
2021/01/02 10:28:21;;;;;;;63.63;32.47;;;;;;;0.38;83.20;100210.34;120608;1150;104380;-82
2021/01/02 10:30:48;;;;;;;58.63;31.25;;;;;;;0.40;83.25;100205.22;120556;1150;104873;-82
2021/01/02 10:33:15;;;;;;;67.50;33.53;;;;;;;0.43;83.21;100213.79;120464;1151;104365;-82
2021/01/02 10:35:42;;;;;;;66.60;32.73;;;;;;;0.46;83.22;100206.11;120506;1150;104478;-82
2021/01/02 10:38:09;;;;;;;61.07;32.97;;;;;;;0.52;83.04;100197.59;120518;1151;104297;-82
2021/01/02 10:40:36;;;;;;;64.70;33.20;;;;;;;0.57;82.77;100209.63;120564;1151;104420;-82
2021/01/02 10:43:03;;;;;;;63.35;33.10;;;;;;;0.63;82.93;100197.69;120569;1151;104452;-82
2021/01/02 10:45:30;;;;;;;70.57;34.70;;;;;;;0.67;82.75;100204.55;120494;1148;104347;-82
2021/01/02 10:47:57;;;;;;;70.83;34.57;;;;;;;0.69;82.78;100190.02;120519;1151;104378;-82
2021/01/02 10:50:25;;;;;;;69.93;35.10;;;;;;;0.74;82.85;100196.92;120511;1151;104399;-82
2021/01/02 10:52:52;;;;;;;64.73;33.00;;;;;;;0.82;83.16;100191.83;120569;1151;104483;-83
2021/01/02 10:55:19;;;;;;;68.67;34.10;;;;;;;0.92;82.91;100196.19;120544;1151;104346;-83
2021/01/02 10:57:46;;;;;;;63.03;33.17;;;;;;;0.99;82.64;100187.66;120523;1150;104410;-82
2021/01/02 11:00:14;;;;;;;66.53;33.33;;;;;;;1.02;82.21;100169.69;120478;1150;104329;-83
2021/01/02 11:02:41;;;;;;;66.77;33.03;;;;;;;1.06;82.31;100176.55;120713;1151;104451;-83
2021/01/02 11:05:09;;;;;;;62.77;32.73;;;;;;;1.09;82.04;100170.59;120647;1151;104499;-83
2021/01/02 11:07:36;;;;;;;62.57;31.90;;;;;;;1.13;82.12;100167.19;120561;1151;104399;-83
2021/01/02 11:10:04;;;;;;;61.60;31.70;;;;;;;1.16;82.26;100178.33;120532;1150;104298;-82
2021/01/02 11:12:31;;;;;;;65.47;32.93;;;;;;;1.18;82.09;100171.48;120576;1150;103062;-83
2021/01/02 11:14:58;;;;;;;64.97;33.57;;;;;;;1.18;81.68;100170.62;120555;1149;104409;-82
2021/01/02 11:17:25;;;;;;;66.03;33.00;;;;;;;1.19;82.06;100165.48;120527;1151;104349;-83
2021/01/02 11:19:52;;;;;;;63.47;31.20;;;;;;;1.19;81.60;100168.06;120538;1150;104340;-83
2021/01/02 11:22:19;;;;;;;63.52;32.85;;;;;;;1.19;81.16;100170.62;120700;1151;102600;-83
2021/01/02 11:24:47;;;;;;;65.73;34.60;;;;;;;1.14;80.91;100174.89;120676;1150;104433;-82